createdAt,value
2022-08-29T00:00:38.720Z,8.30
2022-08-29T00:03:08.995Z,7.73
2022-08-29T00:05:37.666Z,7.70
2022-08-29T00:08:07.060Z,8.93
2022-08-29T00:10:36.194Z,8.00
2022-08-29T00:13:05.619Z,8.00
2022-08-29T00:15:33.028Z,7.77
2022-08-29T00:18:13.417Z,7.87
2022-08-29T00:20:40.769Z,8.03
2022-08-29T00:23:07.893Z,8.43
2022-08-29T00:25:35.137Z,7.33
2022-08-29T00:28:02.729Z,7.60
2022-08-29T00:30:29.809Z,6.90
2022-08-29T00:32:56.709Z,6.60
2022-08-29T00:35:28.082Z,7.90
2022-08-29T00:37:55.511Z,6.97
2022-08-29T00:40:30.651Z,7.43
2022-08-29T00:42:57.570Z,7.73
2022-08-29T00:45:24.770Z,8.13
2022-08-29T00:48:14.260Z,7.50
2022-08-29T00:50:47.935Z,7.57
2022-08-29T00:53:17.316Z,7.50
2022-08-29T00:55:50.543Z,7.40
2022-08-29T00:58:42.125Z,7.80
2022-08-29T01:01:10.306Z,7.37
2022-08-29T01:03:40.997Z,7.47
2022-08-29T01:06:11.320Z,7.00
2022-08-29T01:08:38.118Z,7.30
2022-08-29T01:11:23.361Z,7.40
2022-08-29T01:13:53.364Z,7.43
2022-08-29T01:16:21.388Z,7.70
2022-08-29T01:18:53.442Z,7.40
2022-08-29T01:21:30.048Z,7.17
2022-08-29T01:24:11.263Z,7.73
2022-08-29T01:26:38.080Z,8.37
2022-08-29T01:29:05.038Z,8.20
2022-08-29T01:31:57.416Z,7.60
2022-08-29T01:34:26.881Z,7.20
2022-08-29T01:37:00.053Z,7.57
2022-08-29T01:39:30.195Z,8.23
2022-08-29T01:41:58.538Z,8.87
2022-08-29T01:44:26.300Z,7.50
2022-08-29T01:47:01.773Z,8.57
2022-08-29T01:49:30.255Z,7.90
2022-08-29T01:51:57.212Z,8.20
2022-08-29T01:54:23.998Z,8.50
2022-08-29T01:56:53.046Z,7.90
2022-08-29T01:59:27.114Z,8.30
2022-08-29T02:01:59.767Z,8.87
2022-08-29T02:04:27.363Z,7.93
2022-08-29T02:06:58.435Z,8.43
2022-08-29T02:09:27.253Z,7.83
2022-08-29T02:11:56.067Z,7.60
2022-08-29T02:14:23.703Z,7.30
2022-08-29T02:16:50.902Z,7.60
2022-08-29T02:19:19.154Z,6.90
2022-08-29T02:21:46.233Z,7.80
2022-08-29T02:24:25.507Z,8.37
2022-08-29T02:26:54.436Z,6.60
2022-08-29T02:29:21.484Z,6.70
2022-08-29T02:31:48.720Z,7.17
2022-08-29T02:34:16.342Z,6.90
2022-08-29T02:36:44.582Z,7.70
2022-08-29T02:39:12.140Z,6.63
2022-08-29T02:41:39.090Z,7.70
2022-08-29T02:44:07.989Z,7.13
2022-08-29T02:46:34.830Z,7.47
2022-08-29T02:49:01.716Z,7.83
2022-08-29T02:51:33.231Z,7.67
2022-08-29T02:54:01.685Z,8.13
2022-08-29T02:56:29.885Z,7.13
2022-08-29T02:58:57.735Z,7.17
2022-08-29T03:01:26.246Z,7.50
2022-08-29T03:03:53.712Z,7.37
2022-08-29T03:06:21.052Z,8.00
2022-08-29T03:08:47.986Z,6.83
2022-08-29T03:11:16.058Z,6.67
2022-08-29T03:13:44.307Z,8.10
2022-08-29T03:16:12.209Z,7.80
2022-08-29T03:18:39.111Z,7.10
2022-08-29T03:21:13.505Z,7.07
2022-08-29T03:23:40.284Z,7.00
2022-08-29T03:26:07.061Z,7.10
2022-08-29T03:28:33.833Z,7.87
2022-08-29T03:31:00.642Z,7.13
2022-08-29T03:33:27.441Z,6.30
2022-08-29T03:35:54.188Z,6.57
2022-08-29T03:38:22.744Z,7.13
2022-08-29T03:40:49.484Z,6.80
2022-08-29T03:43:16.373Z,7.37
2022-08-29T03:45:43.228Z,6.27
2022-08-29T03:48:10.084Z,6.90
2022-08-29T03:50:36.892Z,7.00
2022-08-29T03:53:03.838Z,6.50
2022-08-29T03:55:30.685Z,7.07
2022-08-29T03:57:57.493Z,6.77
2022-08-29T04:00:24.466Z,6.20
2022-08-29T04:02:53.759Z,6.80
2022-08-29T04:05:21.924Z,6.67
2022-08-29T04:07:50.701Z,7.00
2022-08-29T04:10:21.653Z,6.13
2022-08-29T04:12:53.817Z,6.20
2022-08-29T04:15:22.599Z,7.60
2022-08-29T04:17:55.347Z,7.40
2022-08-29T04:20:25.807Z,7.43
2022-08-29T04:22:54.737Z,5.80
2022-08-29T04:25:22.580Z,6.17
2022-08-29T04:27:49.643Z,6.17
2022-08-29T04:30:18.864Z,7.07
2022-08-29T04:32:46.128Z,6.20
2022-08-29T04:35:14.922Z,6.73
2022-08-29T04:37:43.019Z,6.30
2022-08-29T04:40:13.795Z,7.30
2022-08-29T04:42:40.629Z,6.97
2022-08-29T04:45:09.407Z,6.80
2022-08-29T04:47:36.621Z,6.87
2022-08-29T04:50:04.934Z,6.80
2022-08-29T04:52:31.926Z,6.33
2022-08-29T04:55:00.092Z,7.10
2022-08-29T04:57:26.965Z,6.40
2022-08-29T04:59:58.865Z,6.83
2022-08-29T05:02:27.631Z,7.07
2022-08-29T05:04:56.650Z,6.33
2022-08-29T05:07:25.656Z,6.70
2022-08-29T05:10:02.495Z,7.13
2022-08-29T05:12:31.248Z,7.10
2022-08-29T05:14:58.117Z,7.90
2022-08-29T05:17:25.855Z,7.63
2022-08-29T05:19:53.005Z,7.80
2022-08-29T05:22:20.873Z,8.00
2022-08-29T05:24:48.865Z,8.77
2022-08-29T05:27:19.140Z,7.80
2022-08-29T05:29:48.263Z,7.53
2022-08-29T05:32:16.004Z,7.77
2022-08-29T05:34:44.063Z,8.20
2022-08-29T05:37:19.001Z,8.43
2022-08-29T05:39:47.295Z,7.80
2022-08-29T05:42:16.373Z,7.87
2022-08-29T05:44:43.236Z,8.33
2022-08-29T05:47:11.840Z,7.43
2022-08-29T05:49:40.656Z,7.47
2022-08-29T05:52:07.926Z,7.97
2022-08-29T05:54:37.884Z,8.30
2022-08-29T05:57:06.829Z,8.63
2022-08-29T05:59:34.779Z,9.00
2022-08-29T06:02:01.628Z,7.87
2022-08-29T06:04:28.635Z,7.90
2022-08-29T06:06:55.497Z,8.37
2022-08-29T06:09:22.354Z,8.80
2022-08-29T06:11:51.317Z,7.93
2022-08-29T06:14:18.190Z,9.73
2022-08-29T06:16:45.180Z,9.50
2022-08-29T06:19:12.489Z,9.43
2022-08-29T06:21:39.496Z,8.40
2022-08-29T06:24:06.723Z,8.87
2022-08-29T06:26:34.301Z,9.13
2022-08-29T06:29:03.868Z,9.40
2022-08-29T06:31:30.717Z,9.50
2022-08-29T06:34:00.484Z,8.30
2022-08-29T06:36:29.173Z,9.83
2022-08-29T06:39:00.053Z,9.20
2022-08-29T06:41:28.531Z,8.00
2022-08-29T06:43:56.918Z,8.30
2022-08-29T06:46:30.951Z,7.77
2022-08-29T06:48:59.347Z,9.30
2022-08-29T06:51:27.324Z,7.87
2022-08-29T06:53:54.168Z,6.93
2022-08-29T06:56:21.286Z,7.23
2022-08-29T06:58:48.129Z,6.63
2022-08-29T07:01:17.498Z,8.63
2022-08-29T07:03:44.599Z,7.00
2022-08-29T07:06:12.193Z,6.97
2022-08-29T07:08:55.180Z,7.87
2022-08-29T07:11:27.555Z,8.47
2022-08-29T07:14:00.588Z,8.50
2022-08-29T07:16:28.649Z,8.30
2022-08-29T07:18:55.794Z,7.60
2022-08-29T07:21:24.784Z,7.20
2022-08-29T07:23:52.945Z,6.80
2022-08-29T07:26:25.793Z,7.37
2022-08-29T07:28:55.781Z,7.57
2022-08-29T07:31:23.075Z,8.47
2022-08-29T07:33:57.088Z,7.70
2022-08-29T07:36:31.224Z,7.50
2022-08-29T07:38:58.085Z,7.23
2022-08-29T07:41:25.664Z,7.30
2022-08-29T07:43:52.855Z,7.67
2022-08-29T07:46:20.905Z,7.50
2022-08-29T07:48:48.528Z,7.50
2022-08-29T07:51:17.890Z,7.57
2022-08-29T07:53:46.565Z,7.30
2022-08-29T07:56:16.716Z,7.70
2022-08-29T07:58:43.699Z,7.37
2022-08-29T08:01:14.901Z,8.03
2022-08-29T08:03:50.054Z,7.60
2022-08-29T08:06:18.510Z,6.57
2022-08-29T08:08:45.427Z,6.10
2022-08-29T08:11:12.249Z,6.00
2022-08-29T08:13:39.448Z,6.40
2022-08-29T08:16:09.342Z,6.40
2022-08-29T08:18:37.570Z,7.53
2022-08-29T08:21:04.737Z,6.20
2022-08-29T08:23:31.600Z,7.10
2022-08-29T08:25:59.048Z,6.70
2022-08-29T08:28:28.165Z,6.40
2022-08-29T08:30:55.392Z,6.20
2022-08-29T08:33:22.484Z,6.50
2022-08-29T08:35:49.353Z,6.50
2022-08-29T08:38:17.110Z,5.10
2022-08-29T08:41:13.751Z,6.43
2022-08-29T08:44:06.689Z,6.60
2022-08-29T08:46:43.284Z,5.67
2022-08-29T08:49:26.959Z,5.13
2022-08-29T08:52:00.859Z,5.80
2022-08-29T08:54:34.294Z,5.53
2022-08-29T08:57:08.717Z,4.80
2022-08-29T08:59:45.372Z,4.63
2022-08-29T09:02:15.062Z,4.93
2022-08-29T09:04:48.204Z,5.33
2022-08-29T09:07:33.488Z,4.90
2022-08-29T09:10:33.888Z,4.50
2022-08-29T09:13:30.562Z,4.60
2022-08-29T09:16:01.292Z,4.90
2022-08-29T09:18:42.048Z,5.00
2022-08-29T09:21:39.574Z,5.80
2022-08-29T09:24:06.319Z,5.33
2022-08-29T09:26:35.001Z,4.73
2022-08-29T09:29:01.828Z,5.57
2022-08-29T09:31:34.546Z,4.73
2022-08-29T09:34:05.079Z,5.10
2022-08-29T09:36:43.121Z,6.23
2022-08-29T09:39:31.737Z,4.70
2022-08-29T09:42:13.688Z,4.80
2022-08-29T09:44:50.960Z,5.13
2022-08-29T09:47:25.722Z,5.50
2022-08-29T09:50:29.589Z,4.40
2022-08-29T09:53:01.760Z,4.17
2022-08-29T09:55:36.200Z,4.23
2022-08-29T09:58:08.285Z,4.67
2022-08-29T10:00:38.422Z,4.30
2022-08-29T10:03:10.125Z,4.70
2022-08-29T10:05:45.602Z,4.40
2022-08-29T10:08:42.443Z,4.37
2022-08-29T10:11:28.400Z,4.80
2022-08-29T10:14:12.969Z,4.50
2022-08-29T10:17:19.747Z,4.00
2022-08-29T10:19:46.865Z,4.13
2022-08-29T10:22:45.161Z,4.57
2022-08-29T10:25:17.977Z,4.67
2022-08-29T10:27:53.952Z,4.47
2022-08-29T10:30:23.649Z,4.10
2022-08-29T10:33:11.461Z,4.77
2022-08-29T10:35:54.397Z,4.27
2022-08-29T10:38:33.370Z,4.73
2022-08-29T10:41:17.185Z,4.97
2022-08-29T10:44:01.351Z,4.73
2022-08-29T10:46:37.061Z,4.70
2022-08-29T10:49:27.678Z,4.90
2022-08-29T10:52:13.072Z,5.33
2022-08-29T10:54:42.854Z,5.40
2022-08-29T10:57:11.848Z,5.57
2022-08-29T10:59:57.125Z,5.13
2022-08-29T11:03:00.861Z,4.53
2022-08-29T11:05:35.326Z,4.30
2022-08-29T11:08:15.391Z,4.97
2022-08-29T11:10:49.697Z,5.63
2022-08-29T11:13:39.724Z,4.33
2022-08-29T11:16:17.486Z,4.63
2022-08-29T11:18:50.894Z,4.10
2022-08-29T11:21:34.738Z,4.60
2022-08-29T11:24:04.176Z,4.07
2022-08-29T11:26:33.754Z,4.70
2022-08-29T11:29:22.759Z,4.93
2022-08-29T11:32:26.861Z,4.33
2022-08-29T11:34:53.644Z,4.50
2022-08-29T11:37:33.617Z,4.83
2022-08-29T11:43:28.503Z,4.80
2022-08-29T11:46:04.609Z,4.43
2022-08-29T11:48:39.006Z,4.40
2022-08-29T11:51:37.317Z,4.97
2022-08-29T11:54:42.282Z,4.30
2022-08-29T11:57:09.081Z,4.30
2022-08-29T11:59:54.684Z,4.53
2022-08-29T12:02:27.969Z,4.47
2022-08-29T12:05:16.372Z,4.40
2022-08-29T12:07:48.901Z,3.57
2022-08-29T12:10:24.332Z,4.43
2022-08-29T12:13:02.278Z,4.17
2022-08-29T12:15:35.324Z,4.27
2022-08-29T12:18:08.037Z,4.30
2022-08-29T12:20:45.097Z,4.00
2022-08-29T12:23:12.659Z,4.17
2022-08-29T12:25:45.481Z,4.00
2022-08-29T12:28:18.305Z,4.83
2022-08-29T12:30:51.248Z,4.53
2022-08-29T12:33:51.671Z,3.90
2022-08-29T12:37:03.930Z,4.40
2022-08-29T12:40:01.517Z,4.33
2022-08-29T12:43:06.818Z,3.80
2022-08-29T12:45:36.141Z,3.87
2022-08-29T12:48:11.311Z,3.80
2022-08-29T12:50:48.154Z,4.47
2022-08-29T12:53:30.930Z,3.97
2022-08-29T12:56:00.663Z,4.07
2022-08-29T12:58:53.088Z,4.00
2022-08-29T13:01:28.746Z,4.00
2022-08-29T13:04:20.438Z,3.97
2022-08-29T13:07:02.685Z,3.60
2022-08-29T13:09:43.703Z,6.77
2022-08-29T13:12:41.004Z,4.17
2022-08-29T13:15:18.375Z,4.43
2022-08-29T13:17:47.925Z,4.63
2022-08-29T13:20:46.004Z,4.67
2022-08-29T13:23:12.833Z,3.97
2022-08-29T13:25:50.924Z,4.03
2022-08-29T13:28:50.986Z,3.80
2022-08-29T13:31:18.462Z,4.40
2022-08-29T13:33:48.364Z,3.93
2022-08-29T13:36:27.163Z,4.13
2022-08-29T13:39:15.549Z,4.40
2022-08-29T13:42:01.198Z,3.93
2022-08-29T13:44:30.097Z,3.87
2022-08-29T13:47:00.954Z,3.83
2022-08-29T13:49:31.713Z,4.17
2022-08-29T13:51:59.471Z,3.93
2022-08-29T13:54:30.451Z,3.90
2022-08-29T13:57:00.373Z,3.70
2022-08-29T13:59:32.337Z,3.60
2022-08-29T14:02:10.999Z,4.33
2022-08-29T14:04:40.329Z,3.80
2022-08-29T14:07:11.657Z,3.87
2022-08-29T14:09:41.822Z,4.07
2022-08-29T14:12:09.125Z,4.27
2022-08-29T14:14:36.101Z,3.80
2022-08-29T14:17:03.169Z,4.17
2022-08-29T14:19:30.809Z,3.60
2022-08-29T14:22:02.421Z,4.00
2022-08-29T14:24:30.872Z,3.67
2022-08-29T14:27:01.531Z,4.30
2022-08-29T14:29:33.766Z,3.93
2022-08-29T14:32:02.991Z,4.17
2022-08-29T14:34:32.448Z,4.27
2022-08-29T14:37:02.793Z,4.30
2022-08-29T14:39:29.599Z,3.83
2022-08-29T14:41:56.651Z,3.60
2022-08-29T14:44:23.612Z,3.97
2022-08-29T14:46:51.785Z,3.73
2022-08-29T14:49:19.560Z,4.80
2022-08-29T14:51:47.162Z,3.77
2022-08-29T14:54:14.877Z,3.97
2022-08-29T14:56:50.585Z,4.20
2022-08-29T14:59:21.920Z,3.80
2022-08-29T15:01:54.275Z,4.60
2022-08-29T15:04:34.797Z,3.93
2022-08-29T15:07:07.759Z,3.70
2022-08-29T15:09:35.163Z,3.97
2022-08-29T15:12:02.009Z,4.00
2022-08-29T15:14:29.081Z,4.90
2022-08-29T15:16:55.928Z,3.47
2022-08-29T15:20:18.140Z,4.03
2022-08-29T15:22:09.867Z,3.93
2022-08-29T15:24:36.888Z,3.63
2022-08-29T15:27:04.256Z,3.83
2022-08-29T15:29:31.513Z,3.83
2022-08-29T15:31:58.490Z,4.07
2022-08-29T15:34:26.426Z,4.17
2022-08-29T15:36:55.389Z,4.13
2022-08-29T15:39:22.966Z,3.80
2022-08-29T15:41:49.772Z,4.37
2022-08-29T15:44:16.588Z,4.53
2022-08-29T15:46:43.445Z,4.60
2022-08-29T15:49:18.853Z,4.07
2022-08-29T15:51:45.750Z,4.30
2022-08-29T15:54:12.594Z,4.53
2022-08-29T15:56:39.568Z,4.33
2022-08-29T15:59:08.669Z,4.07
2022-08-29T16:01:44.849Z,4.10
2022-08-29T16:04:13.104Z,4.33
2022-08-29T16:06:40.081Z,4.00
2022-08-29T16:09:15.571Z,5.13
2022-08-29T16:11:44.138Z,4.33
2022-08-29T16:14:46.729Z,4.73
2022-08-29T16:16:57.818Z,4.50
2022-08-29T16:19:24.623Z,5.07
2022-08-29T16:21:51.561Z,4.00
2022-08-29T16:24:18.505Z,3.77
2022-08-29T16:26:45.973Z,3.93
2022-08-29T16:29:13.373Z,3.57
2022-08-29T16:31:40.712Z,4.27
2022-08-29T16:34:07.488Z,4.47
2022-08-29T16:36:34.877Z,3.70
2022-08-29T16:39:05.253Z,3.80
2022-08-29T16:41:32.393Z,4.10
2022-08-29T16:43:59.293Z,4.10
2022-08-29T16:46:27.863Z,4.53
2022-08-29T16:48:57.986Z,4.10
2022-08-29T16:51:27.133Z,4.10
2022-08-29T16:53:54.156Z,3.87
2022-08-29T16:56:21.418Z,4.80
2022-08-29T16:59:02.009Z,4.07
2022-08-29T17:01:30.135Z,4.07
2022-08-29T17:03:57.560Z,4.27
2022-08-29T17:06:24.357Z,4.33
2022-08-29T17:08:51.065Z,4.50
2022-08-29T17:11:19.473Z,4.07
2022-08-29T17:13:46.493Z,4.40
2022-08-29T17:16:13.951Z,4.03
2022-08-29T17:18:41.155Z,3.90
2022-08-29T17:21:08.589Z,3.90
2022-08-29T17:23:36.045Z,4.40
2022-08-29T17:26:05.758Z,4.20
2022-08-29T17:28:33.746Z,4.20
2022-08-29T17:31:00.599Z,4.23
2022-08-29T17:33:28.114Z,3.90
2022-08-29T17:35:55.967Z,3.80
2022-08-29T17:38:23.385Z,4.00
2022-08-29T17:40:58.384Z,4.63
2022-08-29T17:43:28.949Z,4.27
2022-08-29T17:45:57.540Z,4.00
2022-08-29T17:48:24.995Z,5.30
2022-08-29T17:50:52.128Z,4.50
2022-08-29T17:53:20.602Z,4.53
2022-08-29T17:55:47.858Z,5.27
2022-08-29T17:58:15.108Z,4.23
2022-08-29T18:00:42.193Z,4.10
2022-08-29T18:03:09.357Z,5.13
2022-08-29T18:05:36.192Z,5.07
2022-08-29T18:08:03.482Z,4.60
2022-08-29T18:10:30.473Z,4.80
2022-08-29T18:12:57.624Z,4.93
2022-08-29T18:15:24.491Z,5.10
2022-08-29T18:17:52.577Z,3.97
2022-08-29T18:20:21.648Z,4.90
2022-08-29T18:22:49.745Z,5.40
2022-08-29T18:25:17.641Z,4.77
2022-08-29T18:27:50.368Z,5.00
2022-08-29T18:30:17.649Z,5.90
2022-08-29T18:32:44.462Z,5.10
2022-08-29T18:35:13.844Z,5.17
2022-08-29T18:37:40.695Z,4.70
2022-08-29T18:40:09.455Z,4.67
2022-08-29T18:42:40.774Z,4.67
2022-08-29T18:45:08.617Z,5.40
2022-08-29T18:47:35.504Z,5.50
2022-08-29T18:50:20.763Z,5.27
2022-08-29T18:52:52.589Z,5.67
2022-08-29T18:55:19.838Z,5.67
2022-08-29T18:57:48.255Z,5.33
2022-08-29T19:00:16.596Z,5.40
2022-08-29T19:02:43.719Z,5.13
2022-08-29T19:05:10.793Z,5.80
2022-08-29T19:07:38.252Z,4.80
2022-08-29T19:10:06.512Z,5.20
2022-08-29T19:12:33.755Z,5.30
2022-08-29T19:15:00.567Z,6.20
2022-08-29T19:17:27.390Z,5.40
2022-08-29T19:20:12.929Z,5.60
2022-08-29T19:22:39.709Z,5.50
2022-08-29T19:25:08.721Z,5.40
2022-08-29T19:27:45.882Z,6.17
2022-08-29T19:30:16.571Z,5.80
2022-08-29T19:32:44.036Z,6.00
2022-08-29T19:35:12.828Z,6.20
2022-08-29T19:37:42.311Z,6.30
2022-08-29T19:40:11.686Z,5.23
2022-08-29T19:42:39.315Z,5.77
2022-08-29T19:45:09.818Z,5.97
2022-08-29T19:47:37.151Z,5.10
2022-08-29T19:50:06.049Z,5.83
2022-08-29T19:52:33.748Z,6.77
2022-08-29T19:55:03.825Z,5.60
2022-08-29T19:57:30.671Z,5.97
2022-08-29T19:59:57.466Z,5.70
2022-08-29T20:02:26.027Z,5.70
2022-08-29T20:04:53.205Z,5.97
2022-08-29T20:07:20.165Z,5.97
2022-08-29T20:09:47.913Z,5.93
2022-08-29T20:12:14.755Z,5.90
2022-08-29T20:14:41.919Z,5.90
2022-08-29T20:17:09.530Z,6.20
2022-08-29T20:19:37.008Z,6.20
2022-08-29T20:22:07.084Z,6.33
2022-08-29T20:24:34.385Z,6.73
2022-08-29T20:27:01.530Z,6.10
2022-08-29T20:29:29.673Z,5.70
2022-08-29T20:31:58.804Z,7.10
2022-08-29T20:34:29.698Z,5.40
2022-08-29T20:37:09.085Z,6.60
2022-08-29T20:39:39.062Z,5.40
2022-08-29T20:42:07.935Z,6.07
2022-08-29T20:44:37.921Z,5.47
2022-08-29T20:47:06.910Z,6.40
2022-08-29T20:49:34.988Z,6.00
2022-08-29T20:52:04.022Z,6.23
2022-08-29T20:54:31.605Z,6.73
2022-08-29T20:56:58.780Z,6.17
2022-08-29T20:59:26.922Z,7.17
2022-08-29T21:01:55.665Z,6.43
2022-08-29T21:04:41.113Z,6.47
2022-08-29T21:07:11.133Z,6.50
2022-08-29T21:09:43.220Z,5.30
2022-08-29T21:12:11.918Z,6.47
2022-08-29T21:14:40.120Z,5.80
2022-08-29T21:17:08.869Z,6.13
2022-08-29T21:19:35.698Z,6.67
2022-08-29T21:22:04.473Z,6.47
2022-08-29T21:24:31.536Z,6.00
2022-08-29T21:26:58.539Z,6.60
2022-08-29T21:29:25.308Z,6.23
2022-08-29T21:31:53.985Z,7.13
2022-08-29T21:34:21.538Z,7.07
2022-08-29T21:36:48.515Z,6.97
2022-08-29T21:39:28.241Z,7.20
2022-08-29T21:41:55.873Z,6.20
2022-08-29T21:44:22.680Z,6.53
2022-08-29T21:46:49.586Z,6.73
2022-08-29T21:49:19.368Z,6.83
2022-08-29T21:51:47.339Z,6.63
2022-08-29T21:54:15.396Z,6.80
2022-08-29T21:56:43.020Z,6.73
2022-08-29T21:59:10.718Z,6.97
2022-08-29T22:01:38.992Z,6.43
2022-08-29T22:04:09.111Z,7.37
2022-08-29T22:06:39.714Z,6.43
2022-08-29T22:09:14.105Z,7.10
2022-08-29T22:11:42.465Z,6.37
2022-08-29T22:14:11.658Z,6.83
2022-08-29T22:16:38.891Z,7.10
2022-08-29T22:19:16.513Z,6.20
2022-08-29T22:21:49.895Z,6.83
2022-08-29T22:24:18.164Z,6.87
2022-08-29T22:26:45.941Z,6.60
2022-08-29T22:29:14.140Z,7.20
2022-08-29T22:31:42.555Z,6.63
2022-08-29T22:34:13.919Z,6.27
2022-08-29T22:36:40.789Z,6.40
2022-08-29T22:39:07.742Z,6.87
2022-08-29T22:41:35.293Z,7.00
2022-08-29T22:44:42.311Z,7.07
2022-08-29T22:46:49.690Z,6.70
2022-08-29T22:49:16.932Z,7.83
2022-08-29T22:51:43.707Z,6.60
2022-08-29T22:54:29.212Z,7.03
2022-08-29T22:56:55.975Z,6.77
2022-08-29T22:59:22.938Z,7.27
2022-08-29T23:01:49.885Z,7.00
2022-08-29T23:04:16.848Z,7.53
2022-08-29T23:06:43.674Z,7.30
2022-08-29T23:09:11.184Z,7.23
2022-08-29T23:11:38.170Z,6.80
2022-08-29T23:14:05.789Z,7.27
2022-08-29T23:16:33.703Z,6.80
2022-08-29T23:19:01.610Z,6.80
2022-08-29T23:21:30.272Z,7.00
2022-08-29T23:23:58.158Z,7.30
2022-08-29T23:26:25.969Z,6.40
2022-08-29T23:28:53.742Z,8.00
2022-08-29T23:31:22.165Z,6.87
2022-08-29T23:33:49.386Z,7.70
2022-08-29T23:36:16.322Z,6.60
2022-08-29T23:38:43.602Z,6.50
2022-08-29T23:41:11.071Z,7.10
2022-08-29T23:43:37.844Z,6.77
2022-08-29T23:46:05.828Z,5.87
2022-08-29T23:48:33.567Z,7.13
2022-08-29T23:51:05.530Z,6.87
2022-08-29T23:53:32.401Z,7.30
2022-08-29T23:55:59.182Z,6.20
2022-08-29T23:58:26.038Z,7.50
